sensor_id;sensor_type;location;lat;lon;timestamp;P1;durP1;ratioP1;P2;durP2;ratioP2
23360;SDS011;11852;50.082;18.554;2023-05-29T00:00:08;8.1;;;3.3;;
23360;SDS011;11852;50.082;18.554;2023-05-29T00:01:13;7.3;;;3.3;;
23360;SDS011;11852;50.082;18.554;2023-05-29T00:02:18;7.5;;;3.1;;
23360;SDS011;11852;50.082;18.554;2023-05-29T00:03:23;7.5;;;3.2;;
23360;SDS011;11852;50.082;18.554;2023-05-29T00:04:28;6.0;;;3.0;;
23360;SDS011;11852;50.082;18.554;2023-05-29T00:05:32;8.0;;;3.4;;
23360;SDS011;11852;50.082;18.554;2023-05-29T00:06:39;6.9;;;3.1;;
23360;SDS011;11852;50.082;18.554;2023-05-29T00:07:44;6.6;;;3.3;;
23360;SDS011;11852;50.082;18.554;2023-05-29T00:08:49;7.2;;;3.1;;
23360;SDS011;11852;50.082;18.554;2023-05-29T00:09:54;6.5;;;3.1;;
23360;SDS011;11852;50.082;18.554;2023-05-29T00:10:59;6.7;;;3.3;;
23360;SDS011;11852;50.082;18.554;2023-05-29T00:12:04;7.2;;;3.2;;
23360;SDS011;11852;50.082;18.554;2023-05-29T00:13:09;7.9;;;3.1;;
23360;SDS011;11852;50.082;18.554;2023-05-29T00:14:14;7.5;;;3.0;;
23360;SDS011;11852;50.082;18.554;2023-05-29T00:15:19;7.8;;;3.0;;
23360;SDS011;11852;50.082;18.554;2023-05-29T00:16:24;8.9;;;3.1;;
23360;SDS011;11852;50.082;18.554;2023-05-29T00:17:30;6.3;;;3.0;;
23360;SDS011;11852;50.082;18.554;2023-05-29T00:18:36;8.2;;;3.2;;
23360;SDS011;11852;50.082;18.554;2023-05-29T00:19:43;7.5;;;2.9;;
23360;SDS011;11852;50.082;18.554;2023-05-29T00:20:45;6.9;;;3.1;;
23360;SDS011;11852;50.082;18.554;2023-05-29T00:21:50;6.7;;;2.9;;
23360;SDS011;11852;50.082;18.554;2023-05-29T00:22:55;5.9;;;2.8;;
23360;SDS011;11852;50.082;18.554;2023-05-29T00:24:00;8.7;;;3.1;;
23360;SDS011;11852;50.082;18.554;2023-05-29T00:25:05;8.0;;;3.0;;
23360;SDS011;11852;50.082;18.554;2023-05-29T00:26:10;7.7;;;3.2;;
23360;SDS011;11852;50.082;18.554;2023-05-29T00:27:14;7.6;;;2.9;;
23360;SDS011;11852;50.082;18.554;2023-05-29T00:28:19;7.5;;;3.1;;
23360;SDS011;11852;50.082;18.554;2023-05-29T00:29:24;7.3;;;2.9;;
23360;SDS011;11852;50.082;18.554;2023-05-29T00:30:29;7.7;;;2.8;;
23360;SDS011;11852;50.082;18.554;2023-05-29T00:31:33;8.9;;;2.8;;
23360;SDS011;11852;50.082;18.554;2023-05-29T00:32:38;7.2;;;2.9;;
23360;SDS011;11852;50.082;18.554;2023-05-29T00:33:43;8.2;;;2.9;;
23360;SDS011;11852;50.082;18.554;2023-05-29T00:34:48;6.7;;;3.0;;
23360;SDS011;11852;50.082;18.554;2023-05-29T00:35:52;8.2;;;3.2;;
23360;SDS011;11852;50.082;18.554;2023-05-29T00:36:57;5.9;;;2.8;;
23360;SDS011;11852;50.082;18.554;2023-05-29T00:38:02;6.2;;;3.0;;
23360;SDS011;11852;50.082;18.554;2023-05-29T00:39:07;7.5;;;2.8;;
23360;SDS011;11852;50.082;18.554;2023-05-29T00:40:11;6.1;;;3.1;;
23360;SDS011;11852;50.082;18.554;2023-05-29T00:41:16;7.3;;;2.8;;
23360;SDS011;11852;50.082;18.554;2023-05-29T00:42:21;8.7;;;3.0;;
23360;SDS011;11852;50.082;18.554;2023-05-29T00:43:26;7.2;;;2.9;;
23360;SDS011;11852;50.082;18.554;2023-05-29T00:44:31;7.6;;;3.1;;
23360;SDS011;11852;50.082;18.554;2023-05-29T00:45:38;8.0;;;2.9;;
23360;SDS011;11852;50.082;18.554;2023-05-29T00:46:43;7.2;;;3.0;;
23360;SDS011;11852;50.082;18.554;2023-05-29T00:47:47;7.5;;;2.8;;
23360;SDS011;11852;50.082;18.554;2023-05-29T00:48:52;8.1;;;2.9;;
23360;SDS011;11852;50.082;18.554;2023-05-29T00:49:57;7.5;;;3.1;;
23360;SDS011;11852;50.082;18.554;2023-05-29T00:51:02;5.5;;;2.7;;
23360;SDS011;11852;50.082;18.554;2023-05-29T00:52:06;7.8;;;3.0;;
23360;SDS011;11852;50.082;18.554;2023-05-29T00:53:11;6.0;;;2.9;;
23360;SDS011;11852;50.082;18.554;2023-05-29T00:54:17;7.7;;;2.8;;
23360;SDS011;11852;50.082;18.554;2023-05-29T00:55:20;7.3;;;3.0;;
23360;SDS011;11852;50.082;18.554;2023-05-29T00:56:25;9.0;;;3.3;;
23360;SDS011;11852;50.082;18.554;2023-05-29T00:57:30;7.1;;;3.0;;
23360;SDS011;11852;50.082;18.554;2023-05-29T00:58:35;7.0;;;3.3;;
23360;SDS011;11852;50.082;18.554;2023-05-29T00:59:39;7.2;;;3.2;;
23360;SDS011;11852;50.082;18.554;2023-05-29T01:00:45;6.8;;;3.4;;
23360;SDS011;11852;50.082;18.554;2023-05-29T01:01:50;8.7;;;3.2;;
23360;SDS011;11852;50.082;18.554;2023-05-29T01:02:55;6.5;;;3.4;;
23360;SDS011;11852;50.082;18.554;2023-05-29T01:04:01;5.7;;;2.8;;
23360;SDS011;11852;50.082;18.554;2023-05-29T01:05:06;6.3;;;3.2;;
23360;SDS011;11852;50.082;18.554;2023-05-29T01:06:12;8.6;;;3.4;;
23360;SDS011;11852;50.082;18.554;2023-05-29T01:07:17;8.2;;;3.2;;
23360;SDS011;11852;50.082;18.554;2023-05-29T01:08:22;7.0;;;3.3;;
23360;SDS011;11852;50.082;18.554;2023-05-29T01:09:28;6.7;;;3.0;;
23360;SDS011;11852;50.082;18.554;2023-05-29T01:10:32;7.3;;;3.0;;
23360;SDS011;11852;50.082;18.554;2023-05-29T01:12:55;7.9;;;3.6;;
23360;SDS011;11852;50.082;18.554;2023-05-29T01:13:58;6.7;;;3.5;;
23360;SDS011;11852;50.082;18.554;2023-05-29T01:28:03;6.3;;;2.5;;
23360;SDS011;11852;50.082;18.554;2023-05-29T01:29:08;6.9;;;2.7;;
23360;SDS011;11852;50.082;18.554;2023-05-29T01:30:13;6.8;;;2.7;;
23360;SDS011;11852;50.082;18.554;2023-05-29T01:31:20;6.5;;;2.9;;
23360;SDS011;11852;50.082;18.554;2023-05-29T01:32:27;6.6;;;2.7;;
23360;SDS011;11852;50.082;18.554;2023-05-29T01:33:32;6.4;;;3.0;;
23360;SDS011;11852;50.082;18.554;2023-05-29T01:34:37;7.8;;;3.3;;
23360;SDS011;11852;50.082;18.554;2023-05-29T01:35:42;7.0;;;3.2;;
23360;SDS011;11852;50.082;18.554;2023-05-29T01:36:47;7.0;;;3.0;;
23360;SDS011;11852;50.082;18.554;2023-05-29T01:37:51;10.7;;;3.3;;
23360;SDS011;11852;50.082;18.554;2023-05-29T01:38:56;6.1;;;3.1;;
23360;SDS011;11852;50.082;18.554;2023-05-29T01:40:01;8.0;;;3.4;;
23360;SDS011;11852;50.082;18.554;2023-05-29T01:41:06;6.4;;;3.1;;
23360;SDS011;11852;50.082;18.554;2023-05-29T01:42:10;7.3;;;3.1;;
23360;SDS011;11852;50.082;18.554;2023-05-29T01:43:15;6.5;;;2.8;;
23360;SDS011;11852;50.082;18.554;2023-05-29T01:44:20;7.4;;;2.7;;
23360;SDS011;11852;50.082;18.554;2023-05-29T01:45:24;6.5;;;2.9;;
23360;SDS011;11852;50.082;18.554;2023-05-29T01:46:29;6.0;;;3.0;;
23360;SDS011;11852;50.082;18.554;2023-05-29T01:47:34;7.2;;;2.9;;
23360;SDS011;11852;50.082;18.554;2023-05-29T01:48:40;5.6;;;2.9;;
23360;SDS011;11852;50.082;18.554;2023-05-29T01:49:44;7.9;;;2.9;;
23360;SDS011;11852;50.082;18.554;2023-05-29T01:50:48;6.9;;;3.0;;
23360;SDS011;11852;50.082;18.554;2023-05-29T01:51:53;7.6;;;3.1;;
23360;SDS011;11852;50.082;18.554;2023-05-29T01:52:58;6.9;;;3.0;;
23360;SDS011;11852;50.082;18.554;2023-05-29T01:54:03;7.0;;;3.1;;
23360;SDS011;11852;50.082;18.554;2023-05-29T01:55:09;8.5;;;3.2;;
23360;SDS011;11852;50.082;18.554;2023-05-29T01:56:14;8.1;;;3.8;;
23360;SDS011;11852;50.082;18.554;2023-05-29T01:57:19;7.1;;;3.4;;
23360;SDS011;11852;50.082;18.554;2023-05-29T01:58:26;7.9;;;3.3;;
23360;SDS011;11852;50.082;18.554;2023-05-29T01:59:30;8.5;;;3.5;;
23360;SDS011;11852;50.082;18.554;2023-05-29T02:00:35;8.3;;;3.5;;
23360;SDS011;11852;50.082;18.554;2023-05-29T02:01:41;9.6;;;4.0;;
23360;SDS011;11852;50.082;18.554;2023-05-29T02:02:46;8.3;;;3.4;;
23360;SDS011;11852;50.082;18.554;2023-05-29T02:03:53;8.9;;;3.5;;
23360;SDS011;11852;50.082;18.554;2023-05-29T02:04:58;7.9;;;3.9;;
23360;SDS011;11852;50.082;18.554;2023-05-29T02:06:04;8.4;;;3.9;;
23360;SDS011;11852;50.082;18.554;2023-05-29T02:07:09;8.7;;;3.4;;
23360;SDS011;11852;50.082;18.554;2023-05-29T02:08:14;6.3;;;4.2;;
23360;SDS011;11852;50.082;18.554;2023-05-29T02:09:20;9.0;;;3.6;;
23360;SDS011;11852;50.082;18.554;2023-05-29T02:10:25;9.1;;;4.2;;
23360;SDS011;11852;50.082;18.554;2023-05-29T02:11:30;8.4;;;3.9;;
23360;SDS011;11852;50.082;18.554;2023-05-29T02:12:34;9.5;;;4.0;;
23360;SDS011;11852;50.082;18.554;2023-05-29T02:13:41;9.1;;;4.1;;
23360;SDS011;11852;50.082;18.554;2023-05-29T02:14:44;7.8;;;4.0;;
23360;SDS011;11852;50.082;18.554;2023-05-29T02:15:49;9.5;;;3.9;;
23360;SDS011;11852;50.082;18.554;2023-05-29T02:16:54;8.3;;;4.0;;
23360;SDS011;11852;50.082;18.554;2023-05-29T02:17:59;8.7;;;4.1;;
23360;SDS011;11852;50.082;18.554;2023-05-29T02:19:06;12.0;;;4.6;;
23360;SDS011;11852;50.082;18.554;2023-05-29T02:20:16;12.0;;;4.6;;
23360;SDS011;11852;50.082;18.554;2023-05-29T02:21:29;10.9;;;4.0;;
23360;SDS011;11852;50.082;18.554;2023-05-29T02:22:34;10.2;;;4.0;;
23360;SDS011;11852;50.082;18.554;2023-05-29T02:23:39;9.4;;;3.9;;
23360;SDS011;11852;50.082;18.554;2023-05-29T02:24:44;9.9;;;4.3;;
23360;SDS011;11852;50.082;18.554;2023-05-29T02:25:53;10.7;;;4.2;;
23360;SDS011;11852;50.082;18.554;2023-05-29T02:27:00;10.2;;;3.8;;
23360;SDS011;11852;50.082;18.554;2023-05-29T02:28:10;8.7;;;4.0;;
23360;SDS011;11852;50.082;18.554;2023-05-29T02:29:15;9.4;;;4.1;;
23360;SDS011;11852;50.082;18.554;2023-05-29T02:30:20;7.6;;;4.0;;
23360;SDS011;11852;50.082;18.554;2023-05-29T02:31:26;8.3;;;3.9;;
23360;SDS011;11852;50.082;18.554;2023-05-29T02:32:44;11.3;;;4.3;;
23360;SDS011;11852;50.082;18.554;2023-05-29T02:33:49;10.1;;;4.4;;
23360;SDS011;11852;50.082;18.554;2023-05-29T02:34:57;11.2;;;4.5;;
23360;SDS011;11852;50.082;18.554;2023-05-29T02:36:02;10.5;;;4.2;;
23360;SDS011;11852;50.082;18.554;2023-05-29T02:37:08;11.5;;;4.6;;
23360;SDS011;11852;50.082;18.554;2023-05-29T02:38:21;12.0;;;4.5;;
23360;SDS011;11852;50.082;18.554;2023-05-29T02:39:30;10.2;;;4.5;;
23360;SDS011;11852;50.082;18.554;2023-05-29T02:40:39;10.0;;;4.3;;
23360;SDS011;11852;50.082;18.554;2023-05-29T02:41:44;9.3;;;4.7;;
23360;SDS011;11852;50.082;18.554;2023-05-29T02:42:49;9.4;;;4.4;;
23360;SDS011;11852;50.082;18.554;2023-05-29T02:43:54;9.4;;;4.4;;
23360;SDS011;11852;50.082;18.554;2023-05-29T02:45:02;8.4;;;4.3;;
23360;SDS011;11852;50.082;18.554;2023-05-29T02:46:10;8.7;;;4.1;;
23360;SDS011;11852;50.082;18.554;2023-05-29T02:47:18;10.3;;;4.2;;
23360;SDS011;11852;50.082;18.554;2023-05-29T02:48:24;12.1;;;4.7;;
23360;SDS011;11852;50.082;18.554;2023-05-29T02:49:28;8.8;;;4.4;;
23360;SDS011;11852;50.082;18.554;2023-05-29T02:50:34;10.2;;;4.7;;
23360;SDS011;11852;50.082;18.554;2023-05-29T02:51:39;10.1;;;4.2;;
23360;SDS011;11852;50.082;18.554;2023-05-29T02:52:44;10.0;;;4.0;;
23360;SDS011;11852;50.082;18.554;2023-05-29T02:53:50;8.7;;;4.2;;
23360;SDS011;11852;50.082;18.554;2023-05-29T02:54:54;7.8;;;4.0;;
23360;SDS011;11852;50.082;18.554;2023-05-29T02:55:59;8.6;;;3.9;;
23360;SDS011;11852;50.082;18.554;2023-05-29T02:57:06;8.3;;;3.8;;
23360;SDS011;11852;50.082;18.554;2023-05-29T02:58:14;10.4;;;3.9;;
23360;SDS011;11852;50.082;18.554;2023-05-29T02:59:29;8.3;;;3.9;;
23360;SDS011;11852;50.082;18.554;2023-05-29T03:00:42;8.2;;;3.9;;
23360;SDS011;11852;50.082;18.554;2023-05-29T03:01:52;9.2;;;3.9;;
23360;SDS011;11852;50.082;18.554;2023-05-29T03:03:03;9.5;;;4.2;;
23360;SDS011;11852;50.082;18.554;2023-05-29T03:04:09;9.5;;;4.0;;
23360;SDS011;11852;50.082;18.554;2023-05-29T03:05:15;8.4;;;4.0;;
23360;SDS011;11852;50.082;18.554;2023-05-29T03:06:19;9.2;;;4.2;;
23360;SDS011;11852;50.082;18.554;2023-05-29T03:07:24;8.6;;;3.7;;
23360;SDS011;11852;50.082;18.554;2023-05-29T03:08:31;9.0;;;4.0;;
23360;SDS011;11852;50.082;18.554;2023-05-29T03:09:34;11.4;;;4.3;;
23360;SDS011;11852;50.082;18.554;2023-05-29T03:10:39;8.8;;;4.1;;
23360;SDS011;11852;50.082;18.554;2023-05-29T03:11:44;8.8;;;4.1;;
23360;SDS011;11852;50.082;18.554;2023-05-29T03:12:49;9.1;;;4.0;;
23360;SDS011;11852;50.082;18.554;2023-05-29T03:13:54;10.7;;;4.3;;
23360;SDS011;11852;50.082;18.554;2023-05-29T03:14:58;8.4;;;4.4;;
23360;SDS011;11852;50.082;18.554;2023-05-29T03:16:03;10.6;;;4.6;;
23360;SDS011;11852;50.082;18.554;2023-05-29T03:17:09;10.6;;;4.6;;
23360;SDS011;11852;50.082;18.554;2023-05-29T03:18:15;10.6;;;4.6;;
23360;SDS011;11852;50.082;18.554;2023-05-29T03:19:20;11.4;;;4.9;;
23360;SDS011;11852;50.082;18.554;2023-05-29T03:20:25;10.8;;;4.4;;
23360;SDS011;11852;50.082;18.554;2023-05-29T03:21:30;9.4;;;4.7;;
23360;SDS011;11852;50.082;18.554;2023-05-29T03:22:34;11.3;;;4.5;;
23360;SDS011;11852;50.082;18.554;2023-05-29T03:23:39;10.5;;;4.7;;
23360;SDS011;11852;50.082;18.554;2023-05-29T03:24:45;8.2;;;4.5;;
23360;SDS011;11852;50.082;18.554;2023-05-29T03:25:51;9.6;;;5.2;;
23360;SDS011;11852;50.082;18.554;2023-05-29T03:26:57;12.5;;;5.4;;
23360;SDS011;11852;50.082;18.554;2023-05-29T03:28:01;11.1;;;5.6;;
23360;SDS011;11852;50.082;18.554;2023-05-29T03:29:06;13.0;;;5.8;;
23360;SDS011;11852;50.082;18.554;2023-05-29T03:30:12;12.5;;;5.9;;
23360;SDS011;11852;50.082;18.554;2023-05-29T03:31:17;11.8;;;5.8;;
23360;SDS011;11852;50.082;18.554;2023-05-29T03:32:23;18.8;;;6.7;;
23360;SDS011;11852;50.082;18.554;2023-05-29T03:33:28;12.4;;;5.8;;
23360;SDS011;11852;50.082;18.554;2023-05-29T03:34:34;14.0;;;5.9;;
23360;SDS011;11852;50.082;18.554;2023-05-29T03:35:39;15.0;;;5.5;;
23360;SDS011;11852;50.082;18.554;2023-05-29T03:36:44;17.1;;;6.1;;
23360;SDS011;11852;50.082;18.554;2023-05-29T03:37:49;21.4;;;5.9;;
23360;SDS011;11852;50.082;18.554;2023-05-29T03:38:53;22.9;;;6.3;;
23360;SDS011;11852;50.082;18.554;2023-05-29T03:39:58;13.4;;;5.7;;
23360;SDS011;11852;50.082;18.554;2023-05-29T03:41:03;15.3;;;6.2;;
23360;SDS011;11852;50.082;18.554;2023-05-29T03:42:08;16.7;;;6.9;;
23360;SDS011;11852;50.082;18.554;2023-05-29T03:43:13;14.8;;;7.1;;
23360;SDS011;11852;50.082;18.554;2023-05-29T03:44:18;14.8;;;7.1;;
23360;SDS011;11852;50.082;18.554;2023-05-29T03:45:24;18.7;;;7.6;;
23360;SDS011;11852;50.082;18.554;2023-05-29T03:46:30;17.1;;;7.1;;
23360;SDS011;11852;50.082;18.554;2023-05-29T03:47:35;17.4;;;6.9;;
23360;SDS011;11852;50.082;18.554;2023-05-29T03:48:39;18.7;;;6.6;;
23360;SDS011;11852;50.082;18.554;2023-05-29T03:49:44;26.2;;;7.1;;
23360;SDS011;11852;50.082;18.554;2023-05-29T03:50:49;16.6;;;6.9;;
23360;SDS011;11852;50.082;18.554;2023-05-29T03:51:54;18.1;;;7.0;;
23360;SDS011;11852;50.082;18.554;2023-05-29T03:52:59;19.8;;;6.7;;
23360;SDS011;11852;50.082;18.554;2023-05-29T03:54:04;19.4;;;6.7;;
23360;SDS011;11852;50.082;18.554;2023-05-29T03:55:09;14.9;;;6.4;;
23360;SDS011;11852;50.082;18.554;2023-05-29T03:56:15;19.2;;;6.6;;
23360;SDS011;11852;50.082;18.554;2023-05-29T03:57:21;18.1;;;7.1;;
23360;SDS011;11852;50.082;18.554;2023-05-29T03:58:26;18.6;;;6.4;;
23360;SDS011;11852;50.082;18.554;2023-05-29T03:59:31;19.0;;;6.9;;
23360;SDS011;11852;50.082;18.554;2023-05-29T04:00:36;19.7;;;6.5;;
23360;SDS011;11852;50.082;18.554;2023-05-29T04:01:42;19.4;;;6.3;;
23360;SDS011;11852;50.082;18.554;2023-05-29T04:02:47;16.7;;;7.2;;
23360;SDS011;11852;50.082;18.554;2023-05-29T04:03:53;21.6;;;7.7;;
23360;SDS011;11852;50.082;18.554;2023-05-29T04:04:59;19.9;;;7.1;;
23360;SDS011;11852;50.082;18.554;2023-05-29T04:06:03;21.8;;;7.9;;
23360;SDS011;11852;50.082;18.554;2023-05-29T04:07:08;22.8;;;8.5;;
23360;SDS011;11852;50.082;18.554;2023-05-29T04:08:13;36.5;;;8.9;;
23360;SDS011;11852;50.082;18.554;2023-05-29T04:09:18;25.6;;;8.7;;
23360;SDS011;11852;50.082;18.554;2023-05-29T04:10:24;22.3;;;9.8;;
23360;SDS011;11852;50.082;18.554;2023-05-29T04:11:29;21.1;;;8.3;;
23360;SDS011;11852;50.082;18.554;2023-05-29T04:12:34;25.2;;;8.6;;
23360;SDS011;11852;50.082;18.554;2023-05-29T04:13:40;21.9;;;8.7;;
23360;SDS011;11852;50.082;18.554;2023-05-29T04:14:45;25.9;;;9.3;;
23360;SDS011;11852;50.082;18.554;2023-05-29T04:15:50;23.6;;;8.7;;
23360;SDS011;11852;50.082;18.554;2023-05-29T04:16:55;25.3;;;8.9;;
23360;SDS011;11852;50.082;18.554;2023-05-29T04:17:59;24.7;;;9.1;;
23360;SDS011;11852;50.082;18.554;2023-05-29T04:19:04;19.3;;;8.3;;
23360;SDS011;11852;50.082;18.554;2023-05-29T04:20:09;21.2;;;7.7;;
23360;SDS011;11852;50.082;18.554;2023-05-29T04:21:14;23.1;;;7.9;;
23360;SDS011;11852;50.082;18.554;2023-05-29T04:22:19;27.0;;;8.6;;
23360;SDS011;11852;50.082;18.554;2023-05-29T04:23:24;20.4;;;8.0;;
23360;SDS011;11852;50.082;18.554;2023-05-29T04:24:29;21.3;;;8.1;;
23360;SDS011;11852;50.082;18.554;2023-05-29T04:25:34;17.6;;;7.8;;
23360;SDS011;11852;50.082;18.554;2023-05-29T04:26:38;17.0;;;7.9;;
23360;SDS011;11852;50.082;18.554;2023-05-29T04:27:43;20.3;;;8.5;;
23360;SDS011;11852;50.082;18.554;2023-05-29T04:28:49;20.0;;;8.0;;
23360;SDS011;11852;50.082;18.554;2023-05-29T04:29:55;17.6;;;8.8;;
23360;SDS011;11852;50.082;18.554;2023-05-29T04:31:00;19.2;;;8.0;;
23360;SDS011;11852;50.082;18.554;2023-05-29T04:32:06;19.6;;;7.4;;
23360;SDS011;11852;50.082;18.554;2023-05-29T04:33:10;20.9;;;7.0;;
23360;SDS011;11852;50.082;18.554;2023-05-29T04:34:17;17.3;;;7.6;;
23360;SDS011;11852;50.082;18.554;2023-05-29T04:35:21;18.4;;;7.0;;
23360;SDS011;11852;50.082;18.554;2023-05-29T04:36:27;22.0;;;7.2;;
23360;SDS011;11852;50.082;18.554;2023-05-29T04:37:32;17.1;;;7.0;;
23360;SDS011;11852;50.082;18.554;2023-05-29T04:38:36;18.1;;;7.1;;
23360;SDS011;11852;50.082;18.554;2023-05-29T04:39:41;17.8;;;7.0;;
23360;SDS011;11852;50.082;18.554;2023-05-29T04:40:48;22.9;;;7.6;;
23360;SDS011;11852;50.082;18.554;2023-05-29T04:41:53;17.1;;;7.7;;
23360;SDS011;11852;50.082;18.554;2023-05-29T04:42:58;19.8;;;7.5;;
23360;SDS011;11852;50.082;18.554;2023-05-29T04:44:03;19.3;;;7.8;;
23360;SDS011;11852;50.082;18.554;2023-05-29T04:45:07;17.6;;;7.8;;
23360;SDS011;11852;50.082;18.554;2023-05-29T04:46:12;17.9;;;7.6;;
23360;SDS011;11852;50.082;18.554;2023-05-29T04:47:18;18.9;;;7.7;;
23360;SDS011;11852;50.082;18.554;2023-05-29T04:48:24;15.8;;;8.7;;
23360;SDS011;11852;50.082;18.554;2023-05-29T04:49:30;16.1;;;8.9;;
23360;SDS011;11852;50.082;18.554;2023-05-29T04:50:35;20.0;;;8.4;;
23360;SDS011;11852;50.082;18.554;2023-05-29T04:51:42;18.2;;;9.2;;
23360;SDS011;11852;50.082;18.554;2023-05-29T04:52:47;17.9;;;8.5;;
23360;SDS011;11852;50.082;18.554;2023-05-29T04:53:52;18.1;;;8.7;;
23360;SDS011;11852;50.082;18.554;2023-05-29T04:54:56;16.0;;;8.7;;
23360;SDS011;11852;50.082;18.554;2023-05-29T04:56:01;15.4;;;9.2;;
23360;SDS011;11852;50.082;18.554;2023-05-29T04:57:06;18.5;;;8.8;;
23360;SDS011;11852;50.082;18.554;2023-05-29T04:58:15;19.4;;;9.4;;
23360;SDS011;11852;50.082;18.554;2023-05-29T04:59:20;19.4;;;9.1;;
23360;SDS011;11852;50.082;18.554;2023-05-29T05:00:25;17.1;;;9.0;;
23360;SDS011;11852;50.082;18.554;2023-05-29T05:01:30;19.8;;;8.6;;
23360;SDS011;11852;50.082;18.554;2023-05-29T05:02:35;17.8;;;8.8;;
23360;SDS011;11852;50.082;18.554;2023-05-29T05:03:40;17.7;;;8.5;;
23360;SDS011;11852;50.082;18.554;2023-05-29T05:04:47;16.1;;;8.0;;
23360;SDS011;11852;50.082;18.554;2023-05-29T05:05:49;17.6;;;8.2;;
23360;SDS011;11852;50.082;18.554;2023-05-29T05:06:54;15.6;;;8.0;;
23360;SDS011;11852;50.082;18.554;2023-05-29T05:08:09;16.5;;;7.8;;
23360;SDS011;11852;50.082;18.554;2023-05-29T05:09:14;19.0;;;7.9;;
23360;SDS011;11852;50.082;18.554;2023-05-29T05:10:20;18.2;;;7.5;;
23360;SDS011;11852;50.082;18.554;2023-05-29T05:11:26;18.9;;;7.4;;
23360;SDS011;11852;50.082;18.554;2023-05-29T05:12:31;15.1;;;7.5;;
23360;SDS011;11852;50.082;18.554;2023-05-29T05:13:41;15.1;;;6.9;;
23360;SDS011;11852;50.082;18.554;2023-05-29T05:14:46;12.8;;;6.6;;
23360;SDS011;11852;50.082;18.554;2023-05-29T05:15:52;14.8;;;6.6;;
23360;SDS011;11852;50.082;18.554;2023-05-29T05:16:57;12.3;;;6.3;;
23360;SDS011;11852;50.082;18.554;2023-05-29T05:18:01;12.7;;;5.8;;
23360;SDS011;11852;50.082;18.554;2023-05-29T05:19:07;16.4;;;6.3;;
23360;SDS011;11852;50.082;18.554;2023-05-29T05:20:12;14.6;;;5.9;;
23360;SDS011;11852;50.082;18.554;2023-05-29T05:21:18;11.3;;;6.0;;
23360;SDS011;11852;50.082;18.554;2023-05-29T05:22:23;11.5;;;5.8;;
23360;SDS011;11852;50.082;18.554;2023-05-29T05:23:29;11.6;;;5.4;;
23360;SDS011;11852;50.082;18.554;2023-05-29T05:24:35;11.7;;;5.7;;
23360;SDS011;11852;50.082;18.554;2023-05-29T05:25:41;11.1;;;5.7;;
23360;SDS011;11852;50.082;18.554;2023-05-29T05:26:46;12.9;;;5.9;;
23360;SDS011;11852;50.082;18.554;2023-05-29T05:27:51;12.1;;;5.9;;
23360;SDS011;11852;50.082;18.554;2023-05-29T05:28:56;11.8;;;6.1;;
23360;SDS011;11852;50.082;18.554;2023-05-29T05:30:02;12.0;;;5.7;;
23360;SDS011;11852;50.082;18.554;2023-05-29T05:31:06;13.5;;;5.3;;
23360;SDS011;11852;50.082;18.554;2023-05-29T05:32:11;11.5;;;5.6;;
23360;SDS011;11852;50.082;18.554;2023-05-29T05:33:17;10.8;;;5.8;;
23360;SDS011;11852;50.082;18.554;2023-05-29T05:34:22;13.7;;;6.1;;
23360;SDS011;11852;50.082;18.554;2023-05-29T05:35:28;13.4;;;5.6;;
23360;SDS011;11852;50.082;18.554;2023-05-29T05:36:32;12.9;;;5.6;;
23360;SDS011;11852;50.082;18.554;2023-05-29T05:37:37;14.4;;;6.1;;
23360;SDS011;11852;50.082;18.554;2023-05-29T05:38:42;11.8;;;5.9;;
23360;SDS011;11852;50.082;18.554;2023-05-29T05:39:47;11.1;;;5.8;;
23360;SDS011;11852;50.082;18.554;2023-05-29T05:40:52;14.1;;;6.2;;
23360;SDS011;11852;50.082;18.554;2023-05-29T05:41:57;10.9;;;5.8;;
23360;SDS011;11852;50.082;18.554;2023-05-29T05:43:03;12.3;;;5.9;;
23360;SDS011;11852;50.082;18.554;2023-05-29T05:44:08;14.0;;;5.7;;
23360;SDS011;11852;50.082;18.554;2023-05-29T05:45:13;12.1;;;5.8;;
23360;SDS011;11852;50.082;18.554;2023-05-29T05:46:17;15.1;;;6.3;;
23360;SDS011;11852;50.082;18.554;2023-05-29T05:47:22;11.8;;;6.1;;
23360;SDS011;11852;50.082;18.554;2023-05-29T05:48:27;13.6;;;6.1;;
23360;SDS011;11852;50.082;18.554;2023-05-29T05:49:32;15.7;;;5.6;;
23360;SDS011;11852;50.082;18.554;2023-05-29T05:50:36;10.3;;;5.3;;
23360;SDS011;11852;50.082;18.554;2023-05-29T05:51:43;13.6;;;5.5;;
23360;SDS011;11852;50.082;18.554;2023-05-29T05:52:49;15.7;;;5.6;;
23360;SDS011;11852;50.082;18.554;2023-05-29T05:53:53;12.5;;;5.9;;
23360;SDS011;11852;50.082;18.554;2023-05-29T05:54:59;13.8;;;6.0;;
23360;SDS011;11852;50.082;18.554;2023-05-29T05:56:04;14.0;;;5.6;;
23360;SDS011;11852;50.082;18.554;2023-05-29T05:57:10;18.2;;;6.3;;
23360;SDS011;11852;50.082;18.554;2023-05-29T05:58:14;12.6;;;5.7;;
23360;SDS011;11852;50.082;18.554;2023-05-29T05:59:19;11.7;;;6.2;;
23360;SDS011;11852;50.082;18.554;2023-05-29T06:00:23;15.7;;;6.0;;
23360;SDS011;11852;50.082;18.554;2023-05-29T06:01:28;12.3;;;5.4;;
23360;SDS011;11852;50.082;18.554;2023-05-29T06:02:33;13.5;;;5.3;;
23360;SDS011;11852;50.082;18.554;2023-05-29T06:03:38;10.3;;;4.7;;
23360;SDS011;11852;50.082;18.554;2023-05-29T06:04:43;13.2;;;5.3;;
23360;SDS011;11852;50.082;18.554;2023-05-29T06:05:48;11.2;;;5.2;;
23360;SDS011;11852;50.082;18.554;2023-05-29T06:06:53;9.8;;;4.6;;
23360;SDS011;11852;50.082;18.554;2023-05-29T06:07:59;15.4;;;5.5;;
23360;SDS011;11852;50.082;18.554;2023-05-29T06:09:04;10.9;;;5.1;;
23360;SDS011;11852;50.082;18.554;2023-05-29T06:10:09;11.8;;;5.4;;
23360;SDS011;11852;50.082;18.554;2023-05-29T06:11:14;16.4;;;5.2;;
23360;SDS011;11852;50.082;18.554;2023-05-29T06:12:20;14.2;;;5.7;;
23360;SDS011;11852;50.082;18.554;2023-05-29T06:13:25;10.0;;;5.0;;
23360;SDS011;11852;50.082;18.554;2023-05-29T06:14:30;11.8;;;5.3;;
23360;SDS011;11852;50.082;18.554;2023-05-29T06:15:36;13.5;;;5.3;;
23360;SDS011;11852;50.082;18.554;2023-05-29T06:16:42;11.7;;;5.7;;
23360;SDS011;11852;50.082;18.554;2023-05-29T06:17:47;11.0;;;5.5;;
23360;SDS011;11852;50.082;18.554;2023-05-29T06:18:53;14.8;;;5.7;;
23360;SDS011;11852;50.082;18.554;2023-05-29T06:19:59;12.4;;;5.7;;
23360;SDS011;11852;50.082;18.554;2023-05-29T06:21:04;12.3;;;5.2;;
23360;SDS011;11852;50.082;18.554;2023-05-29T06:22:09;13.4;;;5.2;;
23360;SDS011;11852;50.082;18.554;2023-05-29T06:23:14;11.8;;;5.4;;
23360;SDS011;11852;50.082;18.554;2023-05-29T06:24:19;12.1;;;5.5;;
23360;SDS011;11852;50.082;18.554;2023-05-29T06:25:28;10.7;;;5.3;;
23360;SDS011;11852;50.082;18.554;2023-05-29T06:26:36;11.7;;;5.3;;
23360;SDS011;11852;50.082;18.554;2023-05-29T06:27:39;10.5;;;5.2;;
23360;SDS011;11852;50.082;18.554;2023-05-29T06:28:44;11.6;;;5.2;;
23360;SDS011;11852;50.082;18.554;2023-05-29T06:29:48;12.1;;;5.2;;
23360;SDS011;11852;50.082;18.554;2023-05-29T06:30:53;12.8;;;5.0;;
23360;SDS011;11852;50.082;18.554;2023-05-29T06:31:59;10.2;;;4.4;;
23360;SDS011;11852;50.082;18.554;2023-05-29T06:33:05;13.4;;;5.4;;
23360;SDS011;11852;50.082;18.554;2023-05-29T06:34:10;11.6;;;5.4;;
23360;SDS011;11852;50.082;18.554;2023-05-29T06:35:15;12.3;;;5.0;;
23360;SDS011;11852;50.082;18.554;2023-05-29T06:36:20;10.9;;;4.8;;
23360;SDS011;11852;50.082;18.554;2023-05-29T06:37:25;11.5;;;5.2;;
23360;SDS011;11852;50.082;18.554;2023-05-29T06:38:30;14.0;;;5.0;;
23360;SDS011;11852;50.082;18.554;2023-05-29T06:39:35;12.2;;;4.8;;
23360;SDS011;11852;50.082;18.554;2023-05-29T06:40:40;11.9;;;5.2;;
23360;SDS011;11852;50.082;18.554;2023-05-29T06:41:47;10.2;;;4.6;;
23360;SDS011;11852;50.082;18.554;2023-05-29T06:42:52;12.0;;;4.9;;
23360;SDS011;11852;50.082;18.554;2023-05-29T06:43:57;11.6;;;4.9;;
23360;SDS011;11852;50.082;18.554;2023-05-29T06:45:04;15.5;;;5.1;;
23360;SDS011;11852;50.082;18.554;2023-05-29T06:46:10;13.8;;;5.0;;
23360;SDS011;11852;50.082;18.554;2023-05-29T06:47:14;13.3;;;5.3;;
23360;SDS011;11852;50.082;18.554;2023-05-29T06:48:19;11.1;;;4.8;;
23360;SDS011;11852;50.082;18.554;2023-05-29T06:49:24;12.8;;;5.3;;
23360;SDS011;11852;50.082;18.554;2023-05-29T06:50:28;13.5;;;5.2;;